Terminal Aerodrome Forecast
Issued by NWS Shreveport, LA

Home | Current Version | Previous Version | Text Only | Print | Product List | Glossary On
Versions: 1 2 3 4 5 6 7 8 9 10 11 12 13 14 15 16 17 18 19 20 21
000
FTUS44 KSHV 301158
TAFGGG
TAF
KGGG 301158Z 3012/3112 15003KT P6SM VCSH SCT050 SCT150 SCT250
     FM301500 16006KT P6SM FEW025 BKN040
     FM301800 17008KT P6SM SCT040 BKN120
     FM310100 13005KT P6SM SCT050 SCT130
     FM310300 14004KT P6SM VCTS BKN035CB OVC045
     FM310600 16004KT P6SM BKN045 OVC070
     FM311000 17004KT 4SM BR OVC050=

USA.gov is the U.S. government's official web portal to all federal, state and local government web resources and services.